Time;durP1;ratioP1;P1;durP2;ratioP2;P2;SDS_P1;SDS_P2;PMS_P1;PMS_P2;Temp;Humidity;BMP_temperature;BMP_pressure;BME280_temperature;BME280_humidity;BME280_pressure;Samples;Min_cycle;Max_cycle;Signal;HPM_P1;HPM_P2
2022/06/27 00:00:41;;;;;;;1.50;1.40;;;23.10;58.10;;;;;;5013568;28;20173;-72
2022/06/27 00:03:07;;;;;;;1.65;1.50;;;23.10;58.00;;;;;;5012683;28;20228;-72
2022/06/27 00:05:32;;;;;;;1.98;1.67;;;23.00;58.00;;;;;;5013591;28;20177;-71
2022/06/27 00:07:58;;;;;;;2.42;1.42;;;23.10;58.00;;;;;;5013068;28;20200;-71
2022/06/27 00:10:23;;;;;;;1.55;1.45;;;23.10;58.00;;;;;;5012797;28;20188;-71
2022/06/27 00:12:49;;;;;;;1.52;1.42;;;23.00;58.00;;;;;;5013013;28;20172;-72
2022/06/27 00:15:15;;;;;;;2.35;1.52;;;23.00;58.00;;;;;;5013500;28;20263;-72
2022/06/27 00:17:40;;;;;;;1.70;1.60;;;23.00;58.00;;;;;;5012327;28;20256;-73
2022/06/27 00:20:06;;;;;;;2.15;1.52;;;23.00;58.00;;;;;;5013280;28;20224;-73
2022/06/27 00:22:32;;;;;;;1.48;1.38;;;23.00;58.00;;;;;;5013008;28;20179;-73
2022/06/27 00:24:57;;;;;;;1.52;1.40;;;23.00;58.00;;;;;;5012792;28;20172;-73
2022/06/27 00:27:23;;;;;;;1.90;1.70;;;23.00;58.00;;;;;;5013048;28;20168;-71
2022/06/27 00:29:48;;;;;;;1.60;1.50;;;23.00;58.00;;;;;;5012305;28;20196;-70
2022/06/27 00:32:16;;;;;;;1.73;1.63;;;23.00;58.00;;;;;;5012609;28;20203;-71
2022/06/27 00:34:41;;;;;;;2.15;1.40;;;23.00;58.00;;;;;;5012724;28;20196;-72
2022/06/27 00:37:07;;;;;;;1.75;1.65;;;23.00;58.20;;;;;;5012546;28;20172;-71
2022/06/27 00:39:32;;;;;;;2.28;1.45;;;23.00;58.00;;;;;;5012916;28;20176;-72
2022/06/27 00:41:58;;;;;;;1.42;1.30;;;23.00;58.00;;;;;;5012417;28;20535;-72
2022/06/27 00:44:36;;;;;;;1.75;1.65;;;23.00;58.10;;;;;;5012265;28;20633;-72
2022/06/27 00:47:03;;;;;;;1.63;1.52;;;23.00;58.10;;;;;;5012859;28;20184;-72
2022/06/27 00:49:29;;;;;;;1.90;1.70;;;23.00;58.10;;;;;;5012755;28;20303;-71
2022/06/27 00:51:54;;;;;;;2.50;1.45;;;23.00;58.10;;;;;;5011712;28;20750;-72
2022/06/27 00:54:21;;;;;;;2.80;1.73;;;23.00;58.10;;;;;;5012708;28;20176;-72
2022/06/27 00:56:47;;;;;;;1.83;1.65;;;23.00;58.10;;;;;;5012207;28;20627;-72
2022/06/27 00:59:13;;;;;;;2.60;1.38;;;23.00;58.10;;;;;;5011972;28;20195;-72
2022/06/27 01:01:38;;;;;;;2.17;1.70;;;23.00;58.10;;;;;;5012498;28;20191;-72
2022/06/27 01:04:04;;;;;;;1.90;1.48;;;23.00;58.10;;;;;;5012292;28;20636;-72
2022/06/27 01:06:29;;;;;;;1.58;1.48;;;23.00;58.10;;;;;;5012050;28;20635;-71
2022/06/27 01:08:55;;;;;;;1.67;1.58;;;23.00;58.10;;;;;;5012086;28;20208;-72
2022/06/27 01:11:21;;;;;;;2.80;1.52;;;23.00;58.20;;;;;;5018779;28;20173;-72
2022/06/27 01:13:47;;;;;;;1.58;1.48;;;22.90;58.10;;;;;;5018313;28;20187;-72
2022/06/27 01:16:13;;;;;;;3.15;1.77;;;23.00;58.20;;;;;;5019044;28;20176;-72
2022/06/27 01:18:38;;;;;;;1.67;1.42;;;23.00;58.20;;;;;;5018756;28;20263;-73
2022/06/27 01:21:04;;;;;;;1.70;1.45;;;22.90;58.10;;;;;;5018389;28;20307;-73
2022/06/27 01:23:30;;;;;;;2.28;1.75;;;22.90;58.10;;;;;;5001286;28;20180;-73
2022/06/27 01:25:56;;;;;;;1.60;1.50;;;22.90;58.20;;;;;;5017959;28;20180;-73
2022/06/27 01:28:21;;;;;;;1.58;1.48;;;22.90;58.10;;;;;;5019126;28;20212;-72
2022/06/27 01:30:47;;;;;;;1.98;1.60;;;22.90;58.20;;;;;;5018754;28;20178;-71
2022/06/27 01:33:13;;;;;;;2.13;1.63;;;22.90;58.20;;;;;;5018368;28;20187;-70
2022/06/27 01:35:38;;;;;;;2.17;1.60;;;22.90;58.20;;;;;;5018719;28;20183;-72
2022/06/27 01:38:04;;;;;;;2.38;1.50;;;22.90;58.20;;;;;;5018797;28;20180;-72
2022/06/27 01:40:29;;;;;;;1.60;1.50;;;22.90;58.20;;;;;;5018194;28;20180;-73
2022/06/27 01:42:56;;;;;;;1.70;1.60;;;22.90;58.20;;;;;;5018531;28;20193;-72
2022/06/27 01:45:21;;;;;;;2.17;1.95;;;22.90;58.20;;;;;;5018883;28;20650;-73
2022/06/27 01:47:47;;;;;;;2.85;1.77;;;22.90;58.20;;;;;;5017608;28;20204;-72
2022/06/27 01:50:13;;;;;;;1.70;1.58;;;22.90;58.20;;;;;;5018751;28;20181;-71
2022/06/27 01:52:40;;;;;;;2.05;1.85;;;22.90;58.20;;;;;;5001246;28;20271;-72
2022/06/27 01:55:05;;;;;;;2.30;1.38;;;22.90;58.20;;;;;;5000583;28;20398;-72
2022/06/27 01:57:31;;;;;;;1.85;1.52;;;22.90;58.30;;;;;;5019336;28;20703;-74
2022/06/27 01:59:56;;;;;;;2.00;1.60;;;22.90;58.30;;;;;;5018641;28;20179;-72
2022/06/27 02:02:22;;;;;;;1.95;1.75;;;22.90;58.30;;;;;;5017707;28;20250;-73
2022/06/27 02:04:47;;;;;;;1.90;1.58;;;22.90;58.30;;;;;;5000972;28;20173;-72
2022/06/27 02:07:13;;;;;;;2.35;1.98;;;22.90;58.30;;;;;;5018616;28;20184;-72
2022/06/27 02:09:38;;;;;;;1.95;1.85;;;22.90;58.30;;;;;;5000107;28;20212;-72
2022/06/27 02:12:19;;;;;;;1.70;1.60;;;22.90;58.40;;;;;;5018526;28;20187;-72
2022/06/27 02:14:54;;;;;;;1.83;1.50;;;22.80;58.30;;;;;;5018489;28;20241;-73
2022/06/27 02:17:20;;;;;;;3.80;1.88;;;22.90;58.40;;;;;;5017946;28;20171;-73
2022/06/27 02:19:46;;;;;;;1.88;1.60;;;22.90;58.40;;;;;;5017915;28;20168;-72
2022/06/27 02:22:13;;;;;;;1.98;1.40;;;22.90;58.40;;;;;;5015135;28;20180;-74
2022/06/27 02:24:39;;;;;;;3.80;1.83;;;22.90;58.40;;;;;;5015171;28;20569;-71
2022/06/27 02:27:04;;;;;;;1.73;1.63;;;22.90;58.40;;;;;;5015365;28;20177;-71
2022/06/27 02:29:30;;;;;;;1.80;1.70;;;22.80;58.40;;;;;;5014698;28;20258;-70
2022/06/27 02:31:55;;;;;;;3.40;1.65;;;22.80;58.30;;;;;;4997429;28;20188;-70
2022/06/27 02:34:21;;;;;;;1.67;1.55;;;22.80;58.40;;;;;;4997501;28;20183;-71
2022/06/27 02:36:47;;;;;;;1.95;1.80;;;22.80;58.40;;;;;;5014318;28;20173;-71
2022/06/27 02:39:15;;;;;;;6.18;1.95;;;22.90;58.40;;;;;;5015246;28;20263;-71
2022/06/27 02:41:41;;;;;;;1.48;1.38;;;22.80;58.40;;;;;;5014999;28;20183;-72
2022/06/27 02:44:08;;;;;;;1.90;1.70;;;22.90;58.40;;;;;;5014278;28;20172;-72
2022/06/27 02:46:34;;;;;;;1.50;1.40;;;22.80;58.40;;;;;;5015126;28;20180;-72
2022/06/27 02:49:00;;;;;;;2.40;1.67;;;22.80;58.40;;;;;;5014763;28;20208;-72
2022/06/27 02:51:27;;;;;;;1.67;1.58;;;22.80;58.40;;;;;;5014448;28;20200;-71
2022/06/27 02:54:02;;;;;;;1.77;1.67;;;22.80;58.40;;;;;;5014877;28;20211;-71
2022/06/27 02:56:27;;;;;;;1.67;1.55;;;22.80;58.40;;;;;;5014876;28;20226;-72
2022/06/27 02:59:14;;;;;;;1.83;1.73;;;22.80;58.50;;;;;;4996303;28;20188;-72
2022/06/27 03:01:41;;;;;;;1.48;1.38;;;22.80;58.50;;;;;;5014496;28;20198;-71
2022/06/27 03:04:07;;;;;;;1.65;1.50;;;22.80;58.50;;;;;;5014398;28;20228;-71
2022/06/27 03:06:32;;;;;;;1.70;1.60;;;22.80;58.50;;;;;;5013835;28;20644;-70
2022/06/27 03:08:58;;;;;;;1.83;1.70;;;22.80;58.50;;;;;;5014050;28;20219;-70
2022/06/27 03:11:23;;;;;;;2.20;1.92;;;22.80;58.50;;;;;;5013675;28;20180;-71
2022/06/27 03:13:50;;;;;;;3.40;1.70;;;22.80;58.50;;;;;;5014084;28;20284;-71
2022/06/27 03:16:16;;;;;;;3.03;1.98;;;22.80;58.60;;;;;;5014302;28;20220;-72
2022/06/27 03:18:41;;;;;;;2.03;1.73;;;22.80;58.50;;;;;;5013355;28;20208;-72
2022/06/27 03:21:07;;;;;;;2.08;1.42;;;22.80;58.60;;;;;;5014364;28;20181;-72
2022/06/27 03:23:32;;;;;;;2.63;2.15;;;22.80;58.50;;;;;;5014437;28;20726;-72
2022/06/27 03:25:58;;;;;;;1.50;1.40;;;22.80;58.60;;;;;;5013232;28;20199;-72
2022/06/27 03:28:23;;;;;;;1.80;1.65;;;22.70;58.50;;;;;;5014190;28;20317;-71
2022/06/27 03:30:49;;;;;;;1.67;1.58;;;22.80;58.60;;;;;;5013766;28;20268;-71
2022/06/27 03:33:15;;;;;;;1.73;1.63;;;22.80;58.60;;;;;;5012159;28;20175;-72
2022/06/27 03:35:41;;;;;;;1.60;1.50;;;22.70;58.50;;;;;;5013930;28;20199;-71
2022/06/27 03:38:06;;;;;;;1.95;1.77;;;22.80;58.60;;;;;;5013990;28;20663;-71
2022/06/27 03:40:32;;;;;;;1.98;1.70;;;22.80;58.70;;;;;;5013384;28;20203;-72
2022/06/27 03:42:57;;;;;;;2.25;1.73;;;22.70;58.60;;;;;;5013645;28;20639;-72
2022/06/27 03:45:23;;;;;;;1.63;1.52;;;22.70;58.60;;;;;;5013700;28;20214;-72
2022/06/27 03:47:50;;;;;;;2.92;1.77;;;22.80;58.70;;;;;;5013019;28;20216;-72
2022/06/27 03:50:16;;;;;;;1.85;1.50;;;22.70;58.60;;;;;;5013872;28;20181;-71
2022/06/27 03:52:42;;;;;;;2.00;1.90;;;22.70;58.60;;;;;;5013700;28;20176;-71
2022/06/27 03:55:08;;;;;;;2.03;1.83;;;22.70;58.60;;;;;;5013013;28;20183;-73
2022/06/27 03:57:55;;;;;;;2.13;1.92;;;22.70;58.60;;;;;;5013604;28;20184;-72
2022/06/27 04:00:22;;;;;;;2.97;1.85;;;22.80;58.70;;;;;;5013780;28;20177;-72
2022/06/27 04:02:48;;;;;;;1.90;1.70;;;22.80;58.70;;;;;;5012515;28;20632;-72
2022/06/27 04:05:14;;;;;;;2.90;1.63;;;22.70;58.60;;;;;;5013648;28;20586;-69
2022/06/27 04:07:39;;;;;;;2.28;1.70;;;22.70;58.60;;;;;;5012421;28;20197;-69
2022/06/27 04:10:09;;;;;;;1.83;1.73;;;22.70;58.60;;;;;;5013280;28;20976;-70
2022/06/27 04:12:34;;;;;;;3.50;1.80;;;22.70;58.60;;;;;;5013469;28;20180;-71
2022/06/27 04:15:00;;;;;;;2.15;1.80;;;22.70;58.60;;;;;;5012666;28;20184;-70
2022/06/27 04:17:26;;;;;;;4.50;2.00;;;22.70;58.60;;;;;;5013222;28;20250;-70
2022/06/27 04:19:51;;;;;;;2.38;2.17;;;22.70;58.70;;;;;;5012813;28;20188;-71
2022/06/27 04:22:17;;;;;;;2.53;1.88;;;22.70;58.60;;;;;;5012698;28;20169;-72
2022/06/27 04:24:42;;;;;;;2.15;1.83;;;22.70;58.60;;;;;;5012938;28;20180;-72
2022/06/27 04:27:08;;;;;;;1.83;1.73;;;22.70;58.70;;;;;;5013120;28;20188;-71
2022/06/27 04:29:33;;;;;;;1.98;1.63;;;22.70;58.70;;;;;;5012565;28;20215;-69
2022/06/27 04:32:00;;;;;;;2.00;1.75;;;22.70;58.70;;;;;;5012830;28;20176;-70
2022/06/27 04:34:26;;;;;;;2.13;1.50;;;22.70;58.70;;;;;;5012911;28;20539;-70
2022/06/27 04:36:52;;;;;;;2.35;1.75;;;22.70;58.70;;;;;;5012082;28;20251;-71
2022/06/27 04:39:19;;;;;;;1.98;1.80;;;22.70;58.60;;;;;;5013047;28;20586;-70
2022/06/27 04:41:46;;;;;;;1.80;1.70;;;22.70;58.70;;;;;;5012799;28;20224;-71
2022/06/27 04:44:11;;;;;;;2.25;2.00;;;22.70;58.60;;;;;;5011825;28;20256;-71
2022/06/27 04:46:38;;;;;;;2.97;1.83;;;22.70;58.60;;;;;;5012577;28;20213;-71
2022/06/27 04:49:04;;;;;;;2.33;1.92;;;22.70;58.70;;;;;;5012622;28;20211;-70
2022/06/27 04:51:31;;;;;;;2.22;2.03;;;22.70;58.60;;;;;;5011971;28;20172;-70
2022/06/27 04:53:57;;;;;;;2.95;1.73;;;22.70;58.60;;;;;;5012327;28;20181;-70
2022/06/27 04:56:22;;;;;;;1.90;1.80;;;22.70;59.30;;;;;;5012916;28;20183;-72
2022/06/27 04:58:48;;;;;;;2.47;1.88;;;22.70;58.60;;;;;;5011597;28;20562;-71
2022/06/27 05:01:13;;;;;;;2.63;2.00;;;22.70;58.60;;;;;;5012539;28;20230;-70
2022/06/27 05:03:39;;;;;;;1.77;1.67;;;22.70;58.60;;;;;;5012215;28;20220;-69
2022/06/27 05:06:05;;;;;;;4.40;2.28;;;22.70;58.60;;;;;;5011803;28;20234;-68
2022/06/27 05:08:31;;;;;;;1.77;1.67;;;22.70;59.30;;;;;;5012429;28;20678;-69
2022/06/27 05:10:57;;;;;;;2.53;1.95;;;22.70;58.70;;;;;;5011707;28;20173;-69
2022/06/27 05:13:22;;;;;;;1.70;1.60;;;22.70;58.60;;;;;;5012672;28;20189;-70
2022/06/27 05:15:48;;;;;;;2.22;2.13;;;22.70;58.60;;;;;;5012258;28;20608;-70
2022/06/27 05:18:15;;;;;;;2.20;1.92;;;22.70;58.60;;;;;;5011792;28;20176;-71
2022/06/27 05:20:42;;;;;;;2.70;1.83;;;22.70;58.60;;;;;;5012108;28;20180;-71
2022/06/27 05:23:08;;;;;;;2.50;2.30;;;22.70;58.70;;;;;;5012223;28;20184;-72
2022/06/27 05:25:33;;;;;;;2.30;2.10;;;22.70;58.60;;;;;;5011885;28;20177;-71
2022/06/27 05:28:01;;;;;;;2.03;1.92;;;22.70;58.60;;;;;;5012053;28;20797;-69
2022/06/27 05:30:28;;;;;;;2.25;2.15;;;22.70;58.60;;;;;;5012338;28;20177;-69
2022/06/27 05:32:54;;;;;;;1.80;1.70;;;22.70;58.60;;;;;;5011472;28;20195;-69
2022/06/27 05:35:20;;;;;;;2.08;1.88;;;22.60;58.60;;;;;;5012434;28;20177;-69
2022/06/27 05:37:46;;;;;;;1.80;1.70;;;22.70;58.70;;;;;;5011881;28;20181;-70
2022/06/27 05:40:12;;;;;;;2.72;2.25;;;22.70;58.60;;;;;;5011823;28;20263;-70
2022/06/27 05:42:38;;;;;;;1.80;1.70;;;22.70;58.70;;;;;;5012197;28;20268;-71
2022/06/27 05:45:04;;;;;;;1.90;1.80;;;22.70;58.70;;;;;;5012092;28;20697;-71
2022/06/27 05:47:30;;;;;;;2.83;2.30;;;22.70;58.70;;;;;;5011531;28;20188;-70
2022/06/27 05:49:56;;;;;;;1.95;1.85;;;22.70;58.70;;;;;;5011871;28;20212;-71
2022/06/27 05:52:22;;;;;;;3.20;2.00;;;22.70;58.70;;;;;;5012099;28;20208;-70
2022/06/27 05:54:48;;;;;;;1.65;1.55;;;22.70;58.70;;;;;;5011274;28;20204;-71
2022/06/27 05:57:14;;;;;;;2.35;2.05;;;22.70;58.80;;;;;;5013910;28;20647;-70
2022/06/27 05:59:40;;;;;;;1.92;1.83;;;22.70;58.70;;;;;;5015580;28;20550;-70
2022/06/27 06:02:06;;;;;;;2.42;1.92;;;22.70;58.70;;;;;;5014561;28;20204;-69
2022/06/27 06:04:32;;;;;;;2.50;1.77;;;22.70;58.70;;;;;;5015818;28;20200;-70
2022/06/27 06:06:58;;;;;;;2.40;2.20;;;22.70;58.70;;;;;;5015415;28;20177;-68
2022/06/27 06:09:24;;;;;;;2.30;2.10;;;22.70;58.80;;;;;;5014826;28;20270;-69
2022/06/27 06:11:51;;;;;;;1.95;1.85;;;22.70;58.70;;;;;;5015423;28;20256;-69
2022/06/27 06:14:17;;;;;;;2.35;2.13;;;22.70;58.70;;;;;;5014911;28;20227;-70
2022/06/27 06:16:43;;;;;;;2.63;2.10;;;22.70;58.70;;;;;;5015372;28;20518;-70
2022/06/27 06:19:09;;;;;;;2.53;1.85;;;22.70;58.60;;;;;;5015306;28;20187;-71
2022/06/27 06:21:35;;;;;;;2.03;1.85;;;22.70;58.70;;;;;;5014372;28;20888;-72
2022/06/27 06:24:01;;;;;;;2.53;1.95;;;22.70;58.70;;;;;;5015501;28;20168;-71
2022/06/27 06:26:26;;;;;;;2.22;2.05;;;22.70;58.70;;;;;;5015420;28;20582;-71
2022/06/27 06:28:53;;;;;;;2.47;2.00;;;22.70;58.70;;;;;;5014388;28;20242;-70
2022/06/27 06:31:22;;;;;;;2.08;1.98;;;22.70;58.80;;;;;;5015394;28;20541;-71
2022/06/27 06:33:52;;;;;;;2.65;2.10;;;22.70;58.80;;;;;;5014563;28;20176;-69
2022/06/27 06:36:19;;;;;;;3.35;2.35;;;22.70;58.80;;;;;;5014373;28;20622;-73
2022/06/27 06:38:46;;;;;;;4.45;2.55;;;22.70;58.80;;;;;;5015235;28;20191;-72
2022/06/27 06:41:11;;;;;;;1.80;1.70;;;22.70;58.80;;;;;;5015420;28;20260;-72
2022/06/27 06:43:37;;;;;;;2.25;1.98;;;22.70;58.80;;;;;;5014050;28;20284;-72
2022/06/27 06:46:02;;;;;;;2.30;2.13;;;22.70;58.80;;;;;;5014705;28;20607;-71
2022/06/27 06:48:28;;;;;;;2.38;2.00;;;22.70;58.80;;;;;;5014870;28;20299;-71
2022/06/27 06:50:56;;;;;;;1.98;1.88;;;22.70;58.90;;;;;;5013906;28;20572;-71
2022/06/27 06:53:22;;;;;;;2.20;2.10;;;22.70;58.90;;;;;;5014768;28;20187;-72
2022/06/27 06:55:48;;;;;;;2.35;2.15;;;22.70;58.90;;;;;;5014587;28;20184;-71
2022/06/27 06:58:13;;;;;;;2.00;1.90;;;22.70;58.90;;;;;;5014143;28;20172;-72
2022/06/27 07:00:39;;;;;;;2.38;2.17;;;22.70;58.90;;;;;;5014547;28;20180;-69
2022/06/27 07:03:05;;;;;;;2.28;2.08;;;22.70;58.90;;;;;;5014786;28;20235;-69
2022/06/27 07:05:33;;;;;;;2.75;2.08;;;22.70;58.90;;;;;;5014573;28;20576;-69
2022/06/27 07:08:00;;;;;;;2.33;2.13;;;22.70;58.90;;;;;;5014292;28;20215;-69
2022/06/27 07:10:26;;;;;;;5.30;2.15;;;22.70;58.90;;;;;;5015196;28;20173;-69
2022/06/27 07:12:51;;;;;;;5.53;2.17;;;22.70;59.10;;;;;;5013962;28;20184;-70
2022/06/27 07:15:17;;;;;;;3.55;2.42;;;22.70;59.10;;;;;;5014823;28;20682;-70
2022/06/27 07:17:45;;;;;;;3.03;2.28;;;22.70;59.10;;;;;;5013638;28;20183;-70
2022/06/27 07:20:11;;;;;;;4.68;2.28;;;22.70;59.10;;;;;;5014903;28;20180;-71
2022/06/27 07:22:38;;;;;;;3.83;2.00;;;22.70;59.10;;;;;;5014674;28;20173;-71
2022/06/27 07:25:04;;;;;;;4.07;2.00;;;22.70;59.00;;;;;;5014067;28;20242;-71
2022/06/27 07:27:31;;;;;;;3.10;2.60;;;22.70;59.00;;;;;;5014583;28;20714;-68
2022/06/27 07:29:57;;;;;;;2.92;2.50;;;22.80;59.10;;;;;;5014326;28;20180;-69
2022/06/27 07:32:23;;;;;;;3.85;2.20;;;22.70;59.00;;;;;;5013982;28;20176;-69
2022/06/27 07:34:49;;;;;;;2.40;2.20;;;22.70;59.00;;;;;;5014458;28;20179;-69
2022/06/27 07:37:14;;;;;;;2.58;2.38;;;22.80;59.00;;;;;;5014613;28;20173;-69
2022/06/27 07:39:40;;;;;;;3.03;2.08;;;22.80;59.00;;;;;;5013706;28;20192;-70
2022/06/27 07:42:06;;;;;;;2.50;2.30;;;22.80;59.60;;;;;;5014382;28;20585;-71
2022/06/27 07:44:34;;;;;;;2.42;2.20;;;22.80;59.00;;;;;;5014260;28;20266;-71
2022/06/27 07:47:01;;;;;;;3.97;2.05;;;22.80;59.00;;;;;;5013604;28;20215;-71
2022/06/27 07:49:26;;;;;;;3.92;2.28;;;22.80;59.70;;;;;;5014037;28;20215;-70
2022/06/27 07:51:52;;;;;;;2.90;2.10;;;22.80;59.10;;;;;;5014167;28;20176;-70
2022/06/27 07:54:19;;;;;;;3.83;2.30;;;22.70;59.10;;;;;;5013570;28;20181;-71
2022/06/27 07:56:46;;;;;;;2.38;2.17;;;22.70;59.10;;;;;;5013956;28;20180;-71
2022/06/27 07:59:13;;;;;;;2.80;2.25;;;22.70;59.10;;;;;;5014095;28;20192;-71
2022/06/27 08:01:40;;;;;;;2.33;1.83;;;22.70;59.10;;;;;;5013021;28;20184;-71
2022/06/27 08:04:07;;;;;;;2.78;2.13;;;22.80;59.10;;;;;;5013787;28;20228;-71
2022/06/27 08:06:33;;;;;;;3.33;2.65;;;22.80;59.10;;;;;;5014055;28;20195;-70
2022/06/27 08:09:01;;;;;;;2.70;2.17;;;22.80;59.00;;;;;;5012913;28;20216;-69
2022/06/27 08:11:34;;;;;;;2.67;2.35;;;22.80;59.00;;;;;;5013978;28;20275;-69
2022/06/27 08:14:03;;;;;;;2.17;1.98;;;22.80;59.00;;;;;;5013033;28;20195;-71
2022/06/27 08:16:29;;;;;;;2.35;2.05;;;22.80;59.00;;;;;;5013773;28;20623;-72
2022/06/27 08:18:55;;;;;;;2.10;1.90;;;22.80;59.00;;;;;;5013192;28;20189;-71
2022/06/27 08:21:25;;;;;;;3.17;2.00;;;22.90;59.60;;;;;;5012878;28;20194;-71
2022/06/27 08:23:51;;;;;;;2.70;2.00;;;22.90;58.90;;;;;;5013379;28;20181;-71
2022/06/27 08:26:17;;;;;;;2.38;2.10;;;22.90;58.90;;;;;;5013559;28;20177;-71
2022/06/27 08:28:44;;;;;;;2.20;2.10;;;22.90;58.90;;;;;;5012467;28;20216;-70
2022/06/27 08:31:12;;;;;;;2.95;2.13;;;22.80;59.00;;;;;;5013712;28;20177;-70
2022/06/27 08:33:38;;;;;;;2.88;2.42;;;22.80;59.00;;;;;;5013616;28;20235;-68
2022/06/27 08:36:04;;;;;;;3.03;2.17;;;22.80;59.00;;;;;;5012793;28;20267;-71
2022/06/27 08:38:32;;;;;;;2.45;2.25;;;22.80;59.00;;;;;;5013393;28;20183;-71
2022/06/27 08:40:57;;;;;;;2.33;2.13;;;22.80;59.00;;;;;;5013067;28;20667;-71
2022/06/27 08:43:23;;;;;;;2.40;2.20;;;22.90;59.00;;;;;;5012637;28;20222;-71
2022/06/27 08:45:51;;;;;;;2.13;2.00;;;22.90;59.00;;;;;;5012933;28;20520;-72
2022/06/27 08:48:16;;;;;;;2.88;2.50;;;22.90;58.90;;;;;;5013365;28;20219;-71
2022/06/27 08:50:43;;;;;;;2.38;2.25;;;22.90;58.80;;;;;;5012433;28;20172;-71
2022/06/27 08:53:10;;;;;;;2.65;2.00;;;23.00;58.90;;;;;;5013312;28;20247;-72
2022/06/27 08:55:35;;;;;;;2.13;2.03;;;23.00;58.90;;;;;;5012789;28;20199;-71
2022/06/27 08:58:06;;;;;;;3.63;2.35;;;23.00;58.80;;;;;;5012443;28;20188;-71
2022/06/27 09:00:33;;;;;;;1.85;1.75;;;23.00;58.80;;;;;;5013322;28;20176;-71
2022/06/27 09:02:59;;;;;;;2.22;2.03;;;23.10;58.80;;;;;;5012377;28;20243;-70
2022/06/27 09:05:27;;;;;;;2.53;2.13;;;23.10;58.80;;;;;;5012772;28;20173;-70
2022/06/27 09:07:55;;;;;;;2.88;2.38;;;23.10;58.70;;;;;;5012844;28;20290;-69
2022/06/27 09:10:32;;;;;;;2.30;2.10;;;23.10;58.70;;;;;;5012257;28;20181;-70
2022/06/27 09:13:05;;;;;;;2.30;2.10;;;23.10;58.80;;;;;;5012875;28;20184;-70
2022/06/27 09:16:00;;;;;;;2.20;1.98;;;23.10;58.80;;;;;;5013019;28;20264;-70
2022/06/27 09:18:27;;;;;;;2.33;2.10;;;23.10;58.80;;;;;;5012210;28;20234;-71
2022/06/27 09:20:53;;;;;;;2.22;2.05;;;23.00;58.80;;;;;;5012556;28;20662;-72
2022/06/27 09:23:47;;;;;;;2.75;2.47;;;23.10;58.80;;;;;;5012855;28;20176;-72
2022/06/27 09:26:31;;;;;;;2.25;2.08;;;23.00;58.80;;;;;;5012384;28;20184;-71
2022/06/27 09:29:00;;;;;;;1.90;1.80;;;23.00;58.80;;;;;;5012506;28;20536;-69
2022/06/27 09:31:25;;;;;;;2.33;2.22;;;23.00;58.80;;;;;;5014399;28;20184;-68
2022/06/27 09:34:26;;;;;;;1.90;1.80;;;23.00;58.80;;;;;;5016591;28;20180;-69
2022/06/27 09:36:57;;;;;;;2.50;2.30;;;23.10;58.80;;;;;;5016381;28;20512;-70
2022/06/27 09:39:28;;;;;;;2.10;1.90;;;23.10;58.80;;;;;;5015877;28;20183;-70
2022/06/27 09:42:04;;;;;;;2.60;2.45;;;23.10;58.80;;;;;;5016286;28;20179;-70
2022/06/27 09:44:35;;;;;;;1.95;1.85;;;23.10;58.70;;;;;;5016762;28;20271;-71
2022/06/27 09:47:20;;;;;;;2.00;1.80;;;23.10;58.80;;;;;;5015625;28;20530;-70
2022/06/27 09:49:50;;;;;;;2.45;2.25;;;23.10;58.80;;;;;;5016056;28;20282;-69
2022/06/27 09:52:19;;;;;;;2.45;2.25;;;23.10;58.70;;;;;;5015836;28;20176;-70
2022/06/27 09:54:46;;;;;;;2.20;2.00;;;23.10;58.80;;;;;;5016406;28;20207;-71
2022/06/27 09:57:12;;;;;;;2.40;2.20;;;23.10;59.00;;;;;;5016497;28;20207;-71
2022/06/27 09:59:38;;;;;;;3.10;2.00;;;23.10;58.90;;;;;;5015247;28;20635;-71
2022/06/27 10:02:04;;;;;;;3.10;2.08;;;23.10;58.80;;;;;;5015884;28;20280;-70
2022/06/27 10:04:30;;;;;;;2.15;2.00;;;23.20;58.80;;;;;;5016058;28;20272;-70
2022/06/27 10:06:58;;;;;;;2.65;2.45;;;23.20;58.80;;;;;;5015293;28;20200;-68
2022/06/27 10:09:24;;;;;;;2.40;2.03;;;23.20;58.80;;;;;;5015965;28;20234;-69
2022/06/27 10:12:22;;;;;;;2.15;2.00;;;23.20;58.90;;;;;;5015738;28;20200;-68
2022/06/27 10:15:09;;;;;;;2.30;2.10;;;23.20;58.80;;;;;;5014775;28;20191;-70
2022/06/27 10:17:49;;;;;;;3.90;2.15;;;23.20;58.70;;;;;;5015822;28;20180;-71
2022/06/27 10:20:20;;;;;;;2.22;1.90;;;23.20;58.80;;;;;;5015855;28;20646;-72
2022/06/27 10:23:03;;;;;;;1.98;1.88;;;23.20;58.70;;;;;;5014997;28;20181;-73
2022/06/27 10:25:29;;;;;;;2.92;2.20;;;23.20;58.80;;;;;;4999490;28;20223;-71
2022/06/27 10:28:10;;;;;;;2.17;1.98;;;23.20;58.80;;;;;;5014345;28;20208;-70
2022/06/27 10:30:55;;;;;;;2.25;2.05;;;23.20;58.80;;;;;;5015278;28;20651;-70
2022/06/27 10:33:21;;;;;;;2.67;2.08;;;23.20;58.80;;;;;;5014998;28;20184;-68
2022/06/27 10:38:21;;;;;;;2.95;1.95;;;23.20;58.80;;;;;;5015808;28;20203;-71
2022/06/27 10:40:47;;;;;;;2.10;1.90;;;23.30;58.70;;;;;;5015103;28;20176;-71
2022/06/27 10:43:35;;;;;;;2.42;2.08;;;23.30;58.70;;;;;;5013921;28;20191;-71
2022/06/27 10:46:10;;;;;;;2.13;2.00;;;23.30;58.60;;;;;;5015346;28;20179;-70
2022/06/27 10:48:39;;;;;;;2.47;2.22;;;23.40;58.60;;;;;;5014616;28;20222;-71
2022/06/27 10:51:26;;;;;;;2.10;2.00;;;23.40;58.50;;;;;;5015444;28;21023;-72
2022/06/27 10:53:58;;;;;;;4.13;2.33;;;23.40;58.50;;;;;;5014900;28;20179;-70
2022/06/27 10:56:30;;;;;;;1.92;1.77;;;23.40;58.50;;;;;;5014441;28;20180;-72
2022/06/27 10:58:59;;;;;;;2.55;2.00;;;23.50;58.50;;;;;;5015025;28;20179;-72
2022/06/27 11:01:25;;;;;;;3.80;2.20;;;23.50;58.60;;;;;;5015214;28;20230;-70
2022/06/27 11:03:50;;;;;;;3.33;2.08;;;23.40;58.50;;;;;;4996549;28;20231;-69
2022/06/27 11:06:16;;;;;;;3.88;2.00;;;23.40;58.60;;;;;;5015226;28;20176;-70
2022/06/27 11:08:46;;;;;;;3.92;2.00;;;23.40;58.60;;;;;;5014825;28;20212;-69
2022/06/27 11:11:20;;;;;;;2.78;1.90;;;23.40;58.60;;;;;;5014197;28;20177;-70
2022/06/27 11:13:53;;;;;;;2.47;1.92;;;23.40;58.60;;;;;;5014661;28;20215;-71
2022/06/27 11:16:23;;;;;;;2.67;2.08;;;23.40;58.60;;;;;;5014985;28;20173;-71
2022/06/27 11:18:50;;;;;;;4.15;2.17;;;23.40;58.40;;;;;;5013863;28;20211;-71
2022/06/27 11:21:20;;;;;;;5.43;2.60;;;23.50;58.40;;;;;;5014947;28;20180;-71
2022/06/27 11:23:58;;;;;;;2.97;1.95;;;23.50;58.30;;;;;;5013899;28;20185;-72
2022/06/27 11:26:29;;;;;;;3.58;2.00;;;23.50;58.30;;;;;;5014771;28;20195;-71
2022/06/27 11:31:57;;;;;;;3.15;1.92;;;23.50;58.40;;;;;;5013690;28;20252;-69
2022/06/27 11:34:24;;;;;;;2.80;1.98;;;23.60;58.40;;;;;;5014412;28;20610;-69
2022/06/27 11:36:50;;;;;;;10.73;2.28;;;23.60;58.40;;;;;;5014367;28;20176;-71
2022/06/27 11:39:22;;;;;;;2.78;2.00;;;23.60;58.40;;;;;;4996552;28;20271;-67
2022/06/27 11:41:47;;;;;;;3.80;2.20;;;23.60;58.50;;;;;;5014187;28;20177;-66
2022/06/27 11:44:13;;;;;;;2.97;2.15;;;23.60;58.50;;;;;;4980489;28;20533;-68
2022/06/27 11:46:45;;;;;;;4.03;1.92;;;23.60;58.50;;;;;;5013305;28;20173;-67
2022/06/27 11:49:16;;;;;;;4.07;2.20;;;23.50;58.50;;;;;;5014145;28;20766;-67
2022/06/27 11:51:43;;;;;;;3.50;2.10;;;23.60;58.60;;;;;;5013825;28;20184;-68
2022/06/27 11:54:10;;;;;;;2.20;2.00;;;23.50;58.60;;;;;;5012617;28;20202;-69
2022/06/27 11:56:38;;;;;;;4.68;1.90;;;23.50;58.70;;;;;;5013842;28;20575;-67
2022/06/27 11:59:04;;;;;;;2.97;1.98;;;23.50;58.80;;;;;;5013173;28;20177;-68
2022/06/27 12:01:30;;;;;;;2.05;1.90;;;23.40;58.80;;;;;;5014234;28;20268;-67
2022/06/27 12:04:12;;;;;;;2.30;2.10;;;23.50;58.80;;;;;;5013499;28;20315;-67
2022/06/27 12:06:48;;;;;;;2.55;1.90;;;23.50;58.80;;;;;;5013205;28;20183;-68
2022/06/27 12:09:14;;;;;;;5.25;2.45;;;23.50;58.90;;;;;;5013894;28;20258;-66
2022/06/27 12:11:52;;;;;;;2.10;1.90;;;23.40;59.50;;;;;;5013605;28;20176;-67
2022/06/27 12:14:19;;;;;;;6.75;2.03;;;23.40;58.90;;;;;;5013156;28;20187;-67
2022/06/27 12:16:46;;;;;;;2.78;1.98;;;23.40;59.00;;;;;;5013556;28;20238;-68
2022/06/27 12:19:11;;;;;;;2.28;2.08;;;23.30;59.00;;;;;;5013703;28;20235;-68
2022/06/27 12:21:37;;;;;;;6.00;2.28;;;23.40;59.00;;;;;;5012726;28;20519;-68
2022/06/27 12:24:03;;;;;;;5.95;2.47;;;23.40;58.90;;;;;;5013406;28;20183;-68
2022/06/27 12:26:28;;;;;;;1.77;1.67;;;23.40;58.80;;;;;;5013343;28;20168;-67
2022/06/27 12:28:54;;;;;;;4.07;2.58;;;23.40;58.70;;;;;;5012616;28;20220;-66
2022/06/27 12:31:20;;;;;;;5.18;3.17;;;23.50;58.40;;;;;;5013528;28;20172;-67
2022/06/27 12:33:45;;;;;;;3.95;3.03;;;23.50;58.00;;;;;;5013286;28;20267;-66
2022/06/27 12:36:11;;;;;;;3.97;3.10;;;23.50;57.70;;;;;;5012899;28;20251;-66
2022/06/27 12:38:37;;;;;;;4.60;3.28;;;23.50;57.60;;;;;;5013095;28;20631;-67
2022/06/27 12:41:11;;;;;;;4.65;2.92;;;23.50;57.20;;;;;;5012776;28;20195;-68
2022/06/27 12:43:46;;;;;;;5.47;3.15;;;23.50;57.00;;;;;;5013209;28;20179;-65
2022/06/27 12:46:12;;;;;;;4.07;3.15;;;23.50;56.90;;;;;;5013510;28;20180;-68
2022/06/27 12:48:38;;;;;;;4.20;2.35;;;23.40;57.00;;;;;;5012404;28;20219;-66
2022/06/27 12:51:04;;;;;;;5.55;3.50;;;23.40;57.00;;;;;;5013112;28;20195;-66
2022/06/27 12:53:30;;;;;;;6.38;2.90;;;23.40;57.00;;;;;;5013292;28;20238;-66
2022/06/27 12:55:57;;;;;;;3.58;2.47;;;23.40;57.10;;;;;;5012192;28;20561;-67